Ardsley On Hudson, NY (10503)

4:05 PM EST on February 06, 2016 (GMT -0500)
Tarryhill | | Change Station
CLOSE
Current Station
Personal Weather Station
Location: Tarrytown, NY
Elevation: 323 ft
Nearby Weather Stations

Elev 323 ft 41.05 °N, 73.85 °W | Updated 32 seconds ago

Partly Cloudy
Partly Cloudy
38.6 °F
Feels Like 32 °F
N
9.2
Wind Variable Wind from SW
Gusts 9.2 mph

Today
High -- | Low -- °F
--% Chance of Precip.
Yesterday
High -- | Low -- °F
Precip. -- in
Pressure 30.29 in
Visibility 10.0 miles
Clouds Clear
Windchill 32 °F
Dew Point 22 °F
Humidity 52%
Rainfall 0.05 in
Snow Depth Not available.
7:01 AM 5:18 PM
Waning Crescent, 4% visible
METAR KHPN 062056Z 18009KT 10SM CLR 03/M07 A3026 RMK AO2 SLP256 T00281072 56018
Pressure 30.29 in
Visibility 10.0 miles
Clouds Clear
Windchill 32 °F
Dew Point 22 °F
Humidity 52%
Rainfall 0.05 in
Snow Depth Not available.
7:01 AM 5:18 PM
Waning Crescent, 4% visible
METAR KHPN 062056Z 18009KT 10SM CLR 03/M07 A3026 RMK AO2 SLP256 T00281072 56018

10-Day Weather Forecast

Almanac

Astronomy

Feb. 06, 2016 Rise Set
Actual Time
Civil Twilight
Nautical Twilight
Astronomical Twilight
Moon
Length of Visible Light
Length of Day
Tomorrow will be .
, % of the Moon is Illuminated

Today's Extremes

State Highs State Lows

Community

WunderPhotos

Upload Photos

1,891,050 photos uploaded!

WunderBlog® & News

Nearby

Air Quality

  Air Quality AQ Index Pollutant
Not available.

Snow Depth

Station Depth Elevation

Earthquake Activity

City Distance Mag. Time & Date
Minimum magnitude displayed is 2.5.

Coastal Water Temperatures

Place Temperature

Stations

Nearby Weather Stations

Station Location Temp. Windchill Dew Point Humidity Wind Precip. Elev Updated Type
                   

Watches & Warnings

There are currently no watches in effect.